createdAt,value
2022-09-21T00:01:27.239Z,59.13
2022-09-21T00:03:55.940Z,59.89
2022-09-21T00:06:24.658Z,59.61
2022-09-21T00:08:52.088Z,59.95
2022-09-21T00:11:21.913Z,60.75
2022-09-21T00:13:52.110Z,61.54
2022-09-21T00:16:18.933Z,61.71
2022-09-21T00:18:45.788Z,61.24
2022-09-21T00:21:15.059Z,60.92
2022-09-21T00:23:42.451Z,60.31
2022-09-21T00:26:21.194Z,60.44
2022-09-21T00:28:52.471Z,61.89
2022-09-21T00:31:19.315Z,61.64
2022-09-21T00:33:46.553Z,60.49
2022-09-21T00:36:19.019Z,60.78
2022-09-21T00:38:50.150Z,60.54
2022-09-21T00:41:17.013Z,60.93
2022-09-21T00:43:47.915Z,60.07
2022-09-21T00:46:19.149Z,60.34
2022-09-21T00:48:47.109Z,60.40
2022-09-21T00:51:14.850Z,61.55
2022-09-21T00:53:41.816Z,61.46
2022-09-21T00:56:11.118Z,61.53
2022-09-21T00:58:45.088Z,62.38
2022-09-21T01:01:18.537Z,62.79
2022-09-21T01:03:47.504Z,61.57
2022-09-21T01:06:17.224Z,61.56
2022-09-21T01:08:47.096Z,61.67
2022-09-21T01:11:28.308Z,62.22
2022-09-21T01:13:58.089Z,63.02
2022-09-21T01:16:57.115Z,63.15
2022-09-21T01:20:13.320Z,63.36
2022-09-21T01:23:07.047Z,64.00
2022-09-21T01:25:43.123Z,63.70
2022-09-21T01:28:36.707Z,63.16
2022-09-21T01:31:06.993Z,63.38
2022-09-21T01:33:44.369Z,63.38
2022-09-21T01:36:16.611Z,63.95
2022-09-21T01:38:51.331Z,63.85
2022-09-21T01:41:28.981Z,62.64
2022-09-21T01:44:03.074Z,62.33
2022-09-21T01:46:32.681Z,63.13
2022-09-21T01:49:06.037Z,63.09
2022-09-21T01:51:34.584Z,62.43
2022-09-21T01:54:12.996Z,62.83
2022-09-21T01:56:45.125Z,62.63
2022-09-21T01:59:11.799Z,62.42
2022-09-21T02:02:05.411Z,61.58
2022-09-21T02:04:35.298Z,64.31
2022-09-21T02:07:02.004Z,62.90
2022-09-21T02:09:29.078Z,63.93
2022-09-21T02:11:57.064Z,63.06
2022-09-21T02:14:25.729Z,63.15
2022-09-21T02:17:15.491Z,63.82
2022-09-21T02:19:47.939Z,64.54
2022-09-21T02:22:31.908Z,64.73
2022-09-21T02:25:08.541Z,63.83
2022-09-21T02:27:56.740Z,64.47
2022-09-21T02:30:25.597Z,63.73
2022-09-21T02:33:05.188Z,63.95
2022-09-21T02:35:45.528Z,63.19
2022-09-21T02:38:20.537Z,63.01
2022-09-21T02:43:57.589Z,63.15
2022-09-21T02:46:38.171Z,62.72
2022-09-21T02:49:10.480Z,63.73
2022-09-21T02:51:47.900Z,63.10
2022-09-21T02:54:22.901Z,63.60
2022-09-21T02:56:51.608Z,63.98
2022-09-21T02:59:18.572Z,65.08
2022-09-21T03:01:45.414Z,64.25
2022-09-21T03:04:12.168Z,65.77
2022-09-21T03:06:38.984Z,65.46
2022-09-21T03:09:05.789Z,65.85
2022-09-21T03:11:32.570Z,64.92
2022-09-21T03:13:59.928Z,64.54
2022-09-21T03:16:26.679Z,63.89
2022-09-21T03:18:53.448Z,63.59
2022-09-21T03:21:20.268Z,64.03
2022-09-21T03:23:46.958Z,64.39
2022-09-21T03:26:13.688Z,64.40
2022-09-21T03:28:40.409Z,67.36
2022-09-21T03:31:07.168Z,66.21
2022-09-21T03:33:34.008Z,66.23
2022-09-21T03:36:00.708Z,66.01
2022-09-21T03:38:27.449Z,66.31
2022-09-21T03:40:58.019Z,65.69
2022-09-21T03:43:25.418Z,67.44
2022-09-21T03:45:52.989Z,66.97
2022-09-21T03:48:21.803Z,66.32
2022-09-21T03:50:48.600Z,66.85
2022-09-21T03:53:15.816Z,68.58
2022-09-21T03:55:43.322Z,68.32
2022-09-21T03:58:10.205Z,68.96
2022-09-21T04:00:38.353Z,68.00
2022-09-21T04:03:05.560Z,67.08
2022-09-21T04:05:32.797Z,66.54
2022-09-21T04:08:02.137Z,68.26
2022-09-21T04:10:33.109Z,66.89
2022-09-21T04:13:04.536Z,68.04
2022-09-21T04:15:31.573Z,68.73
2022-09-21T04:17:59.302Z,68.13
2022-09-21T04:20:26.253Z,68.24
2022-09-21T04:22:53.039Z,67.16
2022-09-21T04:25:20.579Z,66.92
2022-09-21T04:27:47.438Z,66.85
2022-09-21T04:30:16.008Z,66.61
2022-09-21T04:32:43.039Z,66.27
2022-09-21T04:35:10.671Z,67.26
2022-09-21T04:37:37.762Z,67.02
2022-09-21T04:40:05.985Z,66.93
2022-09-21T04:42:33.439Z,67.71
2022-09-21T04:45:00.808Z,68.26
2022-09-21T04:47:33.019Z,68.46
2022-09-21T04:49:59.728Z,68.50
2022-09-21T04:52:26.607Z,68.78
2022-09-21T04:54:53.363Z,68.49
2022-09-21T04:57:20.093Z,68.12
2022-09-21T04:59:46.826Z,67.56
2022-09-21T05:02:13.593Z,67.10
2022-09-21T05:04:40.414Z,68.31
2022-09-21T05:07:07.226Z,67.62
2022-09-21T05:09:52.883Z,66.43
2022-09-21T05:12:19.595Z,64.78
2022-09-21T05:15:03.343Z,62.41
2022-09-21T05:17:32.852Z,60.56
2022-09-21T05:19:59.731Z,60.80
2022-09-21T05:22:28.082Z,60.97
2022-09-21T05:24:55.943Z,59.61
2022-09-21T05:27:22.789Z,55.39
2022-09-21T05:29:49.972Z,54.69
2022-09-21T05:32:28.902Z,54.80
2022-09-21T05:35:24.528Z,53.61
2022-09-21T05:38:02.649Z,51.66
2022-09-21T05:40:29.794Z,51.57
2022-09-21T05:42:56.928Z,51.01
2022-09-21T05:45:24.159Z,50.39
2022-09-21T05:48:06.157Z,49.68
2022-09-21T05:50:54.511Z,48.88
2022-09-21T05:53:36.379Z,48.50
2022-09-21T05:56:24.958Z,47.57
2022-09-21T05:59:25.432Z,45.63
2022-09-21T06:02:04.396Z,44.63
2022-09-21T06:04:31.689Z,43.23
2022-09-21T06:06:58.449Z,43.84
2022-09-21T06:09:26.855Z,45.19
2022-09-21T06:11:53.939Z,47.02
2022-09-21T06:14:24.870Z,46.86
2022-09-21T06:16:52.211Z,47.58
2022-09-21T06:19:19.302Z,48.01
2022-09-21T06:21:46.331Z,48.58
2022-09-21T06:24:13.225Z,48.96
2022-09-21T06:26:39.952Z,53.22
2022-09-21T06:29:06.971Z,55.37
2022-09-21T06:31:33.756Z,55.10
2022-09-21T06:34:00.610Z,53.41
2022-09-21T06:36:27.647Z,53.24
2022-09-21T06:39:04.172Z,51.22
2022-09-21T06:41:31.083Z,53.15
2022-09-21T06:43:58.009Z,53.40
2022-09-21T06:46:24.979Z,54.97
2022-09-21T06:48:51.977Z,54.60
2022-09-21T06:51:21.078Z,53.10
2022-09-21T06:53:48.795Z,52.09
2022-09-21T06:56:16.208Z,51.36
2022-09-21T06:58:43.039Z,50.14
2022-09-21T07:01:12.629Z,49.21
2022-09-21T07:03:41.375Z,49.95
2022-09-21T07:06:09.589Z,49.78
2022-09-21T07:11:24.186Z,50.32
2022-09-21T07:13:51.328Z,52.52
2022-09-21T07:16:19.931Z,52.78
2022-09-21T07:18:47.439Z,52.14
2022-09-21T07:21:14.992Z,53.05
2022-09-21T07:23:41.843Z,52.36
2022-09-21T07:26:11.085Z,50.97
2022-09-21T07:28:38.444Z,49.94
2022-09-21T07:31:10.241Z,50.10
2022-09-21T07:33:37.991Z,48.70
2022-09-21T07:36:10.588Z,47.70
2022-09-21T07:38:40.134Z,47.46
2022-09-21T07:41:08.377Z,48.78
2022-09-21T07:43:35.295Z,47.81
2022-09-21T07:46:02.332Z,47.50
2022-09-21T07:48:29.245Z,47.02
2022-09-21T07:51:01.385Z,46.34
2022-09-21T07:53:28.185Z,49.15
2022-09-21T07:56:01.323Z,45.55
2022-09-21T07:58:46.826Z,46.34
2022-09-21T08:01:13.738Z,47.16
2022-09-21T08:03:40.771Z,47.24
2022-09-21T08:06:09.490Z,47.33
2022-09-21T08:08:37.091Z,46.37
2022-09-21T08:11:08.541Z,45.67
2022-09-21T08:13:35.332Z,46.55
2022-09-21T08:16:03.453Z,44.29
2022-09-21T08:18:30.716Z,46.02
2022-09-21T08:21:00.499Z,45.03
2022-09-21T08:23:29.311Z,44.30
2022-09-21T08:26:03.730Z,44.08
2022-09-21T08:28:31.461Z,44.64
2022-09-21T08:31:02.657Z,43.30
2022-09-21T08:33:29.991Z,42.79
2022-09-21T08:36:00.270Z,43.73
2022-09-21T08:38:32.337Z,42.16
2022-09-21T08:41:02.303Z,44.12
2022-09-21T08:43:40.051Z,41.25
2022-09-21T08:46:13.080Z,43.42
2022-09-21T08:48:46.642Z,42.67
2022-09-21T08:51:23.356Z,41.43
2022-09-21T08:53:53.932Z,41.53
2022-09-21T08:56:23.491Z,41.72
2022-09-21T08:58:50.406Z,39.28
2022-09-21T09:01:20.230Z,38.86
2022-09-21T09:04:41.830Z,39.06
2022-09-21T09:07:28.852Z,39.51
2022-09-21T09:10:26.898Z,39.63
2022-09-21T09:13:20.952Z,38.87
2022-09-21T09:16:12.966Z,39.11
2022-09-21T09:18:52.908Z,39.06
2022-09-21T09:21:38.613Z,40.72
2022-09-21T09:24:14.380Z,42.83
2022-09-21T09:26:49.915Z,41.64
2022-09-21T09:29:29.360Z,41.88
2022-09-21T09:31:58.452Z,41.92
2022-09-21T09:34:32.365Z,40.53
2022-09-21T09:37:10.370Z,41.09
2022-09-21T09:39:39.188Z,39.64
2022-09-21T09:42:09.060Z,41.57
2022-09-21T09:45:02.217Z,41.69
2022-09-21T09:47:47.711Z,41.48
2022-09-21T09:50:34.278Z,42.39
2022-09-21T09:53:15.152Z,41.56
2022-09-21T09:55:46.583Z,42.03
2022-09-21T09:58:38.798Z,39.35
2022-09-21T10:01:06.542Z,38.93
2022-09-21T10:03:33.590Z,41.70
2022-09-21T10:06:00.516Z,37.18
2022-09-21T10:08:44.450Z,37.77
2022-09-21T10:11:17.083Z,36.87
2022-09-21T10:13:46.849Z,36.89
2022-09-21T10:16:15.449Z,36.56
2022-09-21T10:18:49.382Z,36.36
2022-09-21T10:21:37.966Z,37.77
2022-09-21T10:24:08.175Z,36.84
2022-09-21T10:26:46.005Z,37.40
2022-09-21T10:29:26.722Z,36.93
2022-09-21T10:32:08.955Z,38.27
2022-09-21T10:34:39.223Z,36.77
2022-09-21T10:37:28.915Z,35.15
2022-09-21T10:39:56.530Z,36.66
2022-09-21T10:42:23.888Z,38.00
2022-09-21T10:44:53.762Z,38.05
2022-09-21T10:47:34.440Z,37.23
2022-09-21T10:50:05.850Z,36.69
2022-09-21T10:52:38.800Z,35.73
2022-09-21T10:55:08.558Z,37.36
2022-09-21T10:57:35.513Z,38.17
2022-09-21T11:00:24.110Z,36.54
2022-09-21T11:02:51.184Z,37.38
2022-09-21T11:05:25.650Z,36.05
2022-09-21T11:08:11.329Z,36.30
2022-09-21T11:11:08.241Z,36.25
2022-09-21T11:13:44.819Z,35.71
2022-09-21T11:16:50.560Z,35.50
2022-09-21T11:19:49.001Z,37.19
2022-09-21T11:22:31.120Z,39.44
2022-09-21T11:25:37.502Z,40.13
2022-09-21T11:28:31.790Z,39.77
2022-09-21T11:31:01.527Z,38.92
2022-09-21T11:33:39.651Z,38.82
2022-09-21T11:36:33.170Z,37.26
2022-09-21T11:39:09.951Z,37.38
2022-09-21T11:41:48.890Z,36.32
2022-09-21T11:44:21.920Z,35.73
2022-09-21T11:47:12.999Z,35.33
2022-09-21T11:50:34.310Z,33.69
2022-09-21T11:53:25.717Z,33.21
2022-09-21T11:56:16.831Z,33.70
2022-09-21T11:59:07.322Z,36.06
2022-09-21T12:01:37.050Z,32.30
2022-09-21T12:04:11.200Z,35.30
2022-09-21T12:06:50.108Z,33.61
2022-09-21T12:09:18.050Z,35.12
2022-09-21T12:12:02.882Z,38.01
2022-09-21T12:15:00.366Z,37.65
2022-09-21T12:17:53.481Z,36.39
2022-09-21T12:20:43.489Z,34.75
2022-09-21T12:23:19.561Z,35.17
2022-09-21T12:26:15.940Z,34.88
2022-09-21T12:28:52.117Z,33.85
2022-09-21T12:31:42.336Z,33.80
2022-09-21T12:34:19.026Z,34.75
2022-09-21T12:37:05.883Z,37.03
2022-09-21T12:39:49.279Z,35.59
2022-09-21T12:42:42.142Z,35.53
2022-09-21T12:45:22.063Z,35.73
2022-09-21T12:47:54.156Z,36.13
2022-09-21T12:50:35.181Z,35.48
2022-09-21T12:53:02.858Z,37.65
2022-09-21T12:55:44.682Z,37.59
2022-09-21T12:58:17.099Z,39.25
2022-09-21T13:01:05.537Z,38.59
2022-09-21T13:03:50.460Z,38.28
2022-09-21T13:06:41.717Z,36.78
2022-09-21T13:09:12.959Z,36.83
2022-09-21T13:12:01.872Z,38.28
2022-09-21T13:14:36.667Z,37.97
2022-09-21T13:17:06.071Z,36.90
2022-09-21T13:19:37.404Z,35.51
2022-09-21T13:22:22.733Z,35.65
2022-09-21T13:25:03.322Z,35.92
2022-09-21T13:28:00.889Z,37.15
2022-09-21T13:30:44.344Z,36.22
2022-09-21T13:33:20.209Z,35.11
2022-09-21T13:35:53.155Z,35.79
2022-09-21T13:38:27.228Z,35.93
2022-09-21T13:41:02.956Z,36.86
2022-09-21T13:43:48.415Z,38.23
2022-09-21T13:46:46.586Z,37.51
2022-09-21T13:49:16.024Z,38.12
2022-09-21T13:52:23.289Z,39.33
2022-09-21T13:54:52.400Z,38.83
2022-09-21T13:57:34.510Z,40.57
2022-09-21T14:00:13.392Z,40.77
2022-09-21T14:02:44.871Z,41.27
2022-09-21T14:05:30.112Z,40.89
2022-09-21T14:08:19.000Z,38.62
2022-09-21T14:10:55.577Z,38.27
2022-09-21T14:13:46.971Z,38.75
2022-09-21T14:16:34.838Z,38.16
2022-09-21T14:19:03.844Z,38.84
2022-09-21T14:21:31.476Z,39.17
2022-09-21T14:24:07.877Z,39.95
2022-09-21T14:26:41.440Z,39.83
2022-09-21T14:29:16.359Z,40.37
2022-09-21T14:31:43.833Z,39.89
2022-09-21T14:34:23.339Z,38.92
2022-09-21T14:36:52.493Z,36.26
2022-09-21T14:39:30.394Z,35.29
2022-09-21T14:42:02.862Z,36.52
2022-09-21T14:44:31.832Z,36.96
2022-09-21T14:47:29.282Z,37.40
2022-09-21T14:50:18.630Z,37.72
2022-09-21T14:52:54.454Z,37.44
2022-09-21T14:55:28.191Z,38.04
2022-09-21T14:58:14.903Z,37.79
2022-09-21T15:00:44.452Z,38.57
2022-09-21T15:03:35.878Z,38.50
2022-09-21T15:06:39.936Z,39.11
2022-09-21T15:09:46.973Z,38.93
2022-09-21T15:13:01.152Z,38.37
2022-09-21T15:15:59.071Z,37.82
2022-09-21T15:18:26.304Z,38.38
2022-09-21T15:21:02.594Z,38.98
2022-09-21T15:23:33.932Z,38.58
2022-09-21T15:26:04.141Z,38.50
2022-09-21T15:29:08.884Z,38.90
2022-09-21T15:31:42.162Z,40.40
2022-09-21T15:34:11.240Z,39.45
2022-09-21T15:36:40.587Z,39.37
2022-09-21T15:39:20.610Z,39.47
2022-09-21T15:41:49.533Z,39.99
2022-09-21T15:44:24.086Z,39.72
2022-09-21T15:47:01.209Z,40.26
2022-09-21T15:49:30.106Z,39.76
2022-09-21T15:52:13.065Z,39.54
2022-09-21T15:54:52.263Z,39.79
2022-09-21T15:57:39.384Z,40.17
2022-09-21T16:00:15.816Z,40.48
2022-09-21T16:02:51.750Z,40.62
2022-09-21T16:05:22.266Z,40.35
2022-09-21T16:07:49.367Z,41.21
2022-09-21T16:10:31.278Z,42.33
2022-09-21T16:13:30.547Z,40.80
2022-09-21T16:16:01.891Z,40.83
2022-09-21T16:18:35.447Z,41.02
2022-09-21T16:21:22.438Z,40.45
2022-09-21T16:23:52.170Z,41.37
2022-09-21T16:26:32.886Z,41.00
2022-09-21T16:29:16.841Z,41.30
2022-09-21T16:31:49.888Z,40.41
2022-09-21T16:34:23.157Z,40.59
2022-09-21T16:36:51.682Z,41.07
2022-09-21T16:39:20.089Z,40.75
2022-09-21T16:41:54.207Z,41.87
2022-09-21T16:44:25.804Z,41.28
2022-09-21T16:46:56.898Z,41.11
2022-09-21T16:49:30.214Z,41.56
2022-09-21T16:51:59.788Z,42.23
2022-09-21T16:54:27.793Z,42.24
2022-09-21T16:56:57.643Z,41.81
2022-09-21T16:59:25.647Z,42.19
2022-09-21T17:01:56.522Z,42.00
2022-09-21T17:04:26.333Z,42.71
2022-09-21T17:06:54.285Z,42.76
2022-09-21T17:09:35.732Z,43.02
2022-09-21T17:12:04.535Z,42.60
2022-09-21T17:14:37.114Z,42.72
2022-09-21T17:17:11.066Z,43.04
2022-09-21T17:19:38.127Z,43.33
2022-09-21T17:22:07.181Z,42.96
2022-09-21T17:24:49.655Z,43.98
2022-09-21T17:27:19.406Z,44.22
2022-09-21T17:29:50.114Z,44.30
2022-09-21T17:32:21.629Z,45.47
2022-09-21T17:35:13.996Z,45.17
2022-09-21T17:37:40.770Z,45.21
2022-09-21T17:40:11.098Z,45.78
2022-09-21T17:42:44.464Z,45.20
2022-09-21T17:45:39.251Z,46.13
2022-09-21T17:48:11.056Z,46.17
2022-09-21T17:50:37.965Z,45.06
2022-09-21T17:53:23.958Z,45.81
2022-09-21T17:55:57.034Z,45.74
2022-09-21T17:58:50.191Z,45.32
2022-09-21T18:01:37.931Z,44.45
2022-09-21T18:04:05.820Z,45.01
2022-09-21T18:06:34.336Z,44.80
2022-09-21T18:09:01.895Z,44.97
2022-09-21T18:12:06.482Z,46.35
2022-09-21T18:14:53.156Z,47.67
2022-09-21T18:17:32.734Z,47.42
2022-09-21T18:20:29.675Z,47.19
2022-09-21T18:23:06.716Z,47.72
2022-09-21T18:25:47.818Z,47.48
2022-09-21T18:28:24.068Z,46.63
2022-09-21T18:31:00.227Z,49.12
2022-09-21T18:33:54.064Z,47.80
2022-09-21T18:36:48.785Z,48.38
2022-09-21T18:39:27.916Z,48.02
2022-09-21T18:42:28.478Z,47.66
2022-09-21T18:45:06.356Z,47.49
2022-09-21T18:47:54.560Z,47.08
2022-09-21T18:50:34.328Z,48.30
2022-09-21T18:53:09.400Z,48.67
2022-09-21T18:55:37.799Z,46.52
2022-09-21T18:58:04.908Z,46.51
2022-09-21T19:00:32.189Z,48.26
2022-09-21T19:03:18.173Z,48.79
2022-09-21T19:05:52.468Z,49.31
2022-09-21T19:08:25.549Z,49.35
2022-09-21T19:11:04.407Z,48.47
2022-09-21T19:13:59.253Z,49.96
2022-09-21T19:16:59.297Z,50.77
2022-09-21T19:19:51.395Z,49.99
2022-09-21T19:22:30.312Z,50.46
2022-09-21T19:25:15.785Z,50.76
2022-09-21T19:27:59.628Z,49.72
2022-09-21T19:30:27.036Z,50.20
2022-09-21T19:32:58.619Z,49.71
2022-09-21T19:35:28.292Z,51.46
2022-09-21T19:38:01.868Z,49.71
2022-09-21T19:40:41.900Z,49.01
2022-09-21T19:43:14.718Z,49.33
2022-09-21T19:45:47.499Z,49.08
2022-09-21T19:48:16.420Z,49.18
2022-09-21T19:50:47.144Z,49.86
2022-09-21T19:53:35.511Z,48.87
2022-09-21T19:56:21.712Z,47.57
2022-09-21T19:59:07.334Z,49.09
2022-09-21T20:01:38.570Z,48.19
2022-09-21T20:04:06.501Z,47.71
2022-09-21T20:06:44.296Z,49.50
2022-09-21T20:09:29.222Z,50.14
2022-09-21T20:12:22.036Z,49.97
2022-09-21T20:15:03.754Z,49.84
2022-09-21T20:17:43.826Z,50.28
2022-09-21T20:20:26.562Z,50.54
2022-09-21T20:22:54.300Z,49.41
2022-09-21T20:25:26.647Z,49.70
2022-09-21T20:27:58.700Z,48.81
2022-09-21T20:30:36.119Z,49.88
2022-09-21T20:33:09.315Z,51.38
2022-09-21T20:35:36.190Z,49.92
2022-09-21T20:38:03.291Z,49.51
2022-09-21T20:40:32.509Z,50.03
2022-09-21T20:43:01.342Z,51.56
2022-09-21T20:45:29.464Z,52.41
2022-09-21T20:47:57.460Z,51.79
2022-09-21T20:50:30.513Z,51.85
2022-09-21T20:52:57.461Z,51.02
2022-09-21T20:55:24.498Z,52.27
2022-09-21T20:57:51.245Z,53.90
2022-09-21T21:00:19.530Z,53.70
2022-09-21T21:02:46.327Z,53.92
2022-09-21T21:05:13.047Z,55.44
2022-09-21T21:07:43.560Z,55.57
2022-09-21T21:10:15.746Z,55.41
2022-09-21T21:12:42.748Z,54.41
2022-09-21T21:15:10.306Z,55.39
2022-09-21T21:17:37.149Z,55.78
2022-09-21T21:20:05.736Z,56.04
2022-09-21T21:22:33.086Z,56.10
2022-09-21T21:24:59.796Z,56.12
2022-09-21T21:27:28.145Z,55.75
2022-09-21T21:29:55.628Z,55.27
2022-09-21T21:32:24.676Z,54.88
2022-09-21T21:34:52.686Z,56.06
2022-09-21T21:37:21.328Z,56.97
2022-09-21T21:39:48.254Z,56.55
2022-09-21T21:42:15.417Z,56.63
2022-09-21T21:44:42.154Z,56.50
2022-09-21T21:47:37.720Z,55.73
2022-09-21T21:49:55.540Z,55.35
2022-09-21T21:52:22.325Z,55.36
2022-09-21T21:54:50.154Z,55.97
2022-09-21T21:57:16.986Z,57.10
2022-09-21T21:59:43.965Z,56.81
2022-09-21T22:02:10.821Z,55.44
2022-09-21T22:04:38.871Z,56.04
2022-09-21T22:07:06.110Z,55.68
2022-09-21T22:09:32.925Z,56.57
2022-09-21T22:12:02.074Z,56.27
2022-09-21T22:14:28.866Z,57.67
2022-09-21T22:16:55.743Z,56.56
2022-09-21T22:19:22.473Z,58.99
2022-09-21T22:21:53.972Z,58.30
2022-09-21T22:24:22.427Z,58.76
2022-09-21T22:26:49.526Z,59.76
2022-09-21T22:29:17.494Z,59.41
2022-09-21T22:31:47.204Z,60.17
2022-09-21T22:34:14.907Z,61.41
2022-09-21T22:36:43.980Z,60.10
2022-09-21T22:39:12.328Z,61.13
2022-09-21T22:41:41.138Z,61.75
2022-09-21T22:44:09.173Z,60.60
2022-09-21T22:46:36.873Z,62.14
2022-09-21T22:49:04.501Z,62.26
2022-09-21T22:51:31.792Z,61.08
2022-09-21T22:53:58.877Z,60.07
2022-09-21T22:56:29.154Z,60.95
2022-09-21T22:58:58.825Z,62.39
2022-09-21T23:01:28.792Z,62.81
2022-09-21T23:03:58.724Z,60.75
2022-09-21T23:06:28.263Z,60.33
2022-09-21T23:08:57.760Z,61.02
2022-09-21T23:11:30.590Z,61.00
2022-09-21T23:13:59.214Z,61.34
2022-09-21T23:16:28.467Z,61.49
2022-09-21T23:18:56.449Z,60.34
2022-09-21T23:21:26.308Z,62.07
2022-09-21T23:24:02.839Z,61.40
2022-09-21T23:26:32.234Z,60.59
2022-09-21T23:29:01.250Z,61.44
2022-09-21T23:31:29.265Z,61.37
2022-09-21T23:33:59.230Z,61.24
2022-09-21T23:36:29.802Z,60.46
2022-09-21T23:38:57.333Z,60.85
2022-09-21T23:41:27.379Z,59.26
2022-09-21T23:43:54.740Z,59.62
2022-09-21T23:46:25.539Z,59.28
2022-09-21T23:48:52.612Z,59.01
2022-09-21T23:51:19.636Z,59.03
2022-09-21T23:53:46.990Z,58.01
2022-09-21T23:56:17.569Z,58.73
2022-09-21T23:58:44.458Z,58.63
